Time;durP1;ratioP1;P1;durP2;ratioP2;P2;SDS_P1;SDS_P2;PMS_P1;PMS_P2;Temp;Humidity;BMP_temperature;BMP_pressure;BME280_temperature;BME280_humidity;BME280_pressure;Samples;Min_cycle;Max_cycle;Signal;HPM_P1;HPM_P2
2022/07/18 00:01:21;;;;;;;7.35;2.00;;;;;;;11.11;75.93;100261.34;8368567;28;20484;-74
2022/07/18 00:05:22;;;;;;;8.52;1.70;;;;;;;11.12;75.76;100268.38;8380143;28;20067;-75
2022/07/18 00:09:23;;;;;;;8.35;1.58;;;;;;;11.07;75.57;100265.72;8394895;28;20450;-74
2022/07/18 00:13:24;;;;;;;3.97;2.00;;;;;;;11.01;76.14;100267.66;8392070;28;20098;-75
2022/07/18 00:17:25;;;;;;;4.60;1.60;;;;;;;11.00;75.64;100265.22;8366214;28;20045;-76
2022/07/18 00:21:26;;;;;;;6.70;1.70;;;;;;;10.91;76.36;100261.53;8394409;28;20403;-74
2022/07/18 00:25:27;;;;;;;5.95;1.95;;;;;;;10.89;76.58;100261.03;8387989;28;20118;-74
2022/07/18 00:29:28;;;;;;;7.60;2.13;;;;;;;10.91;76.60;100256.13;8391963;28;20040;-75
2022/07/18 00:33:29;;;;;;;3.88;1.70;;;;;;;10.83;76.74;100248.63;8381630;28;20048;-75
2022/07/18 00:37:30;;;;;;;4.85;1.77;;;;;;;10.83;76.52;100256.75;8394458;28;20143;-74
2022/07/18 00:41:31;;;;;;;3.05;1.92;;;;;;;10.79;76.74;100242.16;8399823;28;20056;-74
2022/07/18 00:45:32;;;;;;;4.53;1.60;;;;;;;10.80;76.86;100249.19;8398403;28;20072;-74
2022/07/18 00:49:33;;;;;;;4.25;1.80;;;;;;;10.77;77.00;100245.16;8387426;28;20053;-75
2022/07/18 00:53:35;;;;;;;4.90;1.80;;;;;;;10.78;77.12;100245.97;8398416;28;20542;-75
2022/07/18 00:57:37;;;;;;;6.78;1.73;;;;;;;10.79;76.95;100247.56;8414040;28;20048;-76
2022/07/18 01:01:47;;;;;;;6.75;2.05;;;;;;;10.72;77.42;100241.69;8399080;28;20040;-76
2022/07/18 01:05:48;;;;;;;2.72;1.60;;;;;;;10.65;77.69;100252.00;8363535;28;20045;-74
2022/07/18 01:09:49;;;;;;;1.92;1.30;;;;;;;10.63;77.93;100248.78;8385637;28;20057;-75
2022/07/18 01:13:50;;;;;;;3.25;1.80;;;;;;;10.67;77.94;100249.84;8388053;28;20063;-75
2022/07/18 01:17:51;;;;;;;5.93;2.83;;;;;;;10.63;77.89;100243.38;8376689;28;20071;-74
2022/07/18 01:21:52;;;;;;;4.93;1.58;;;;;;;10.64;77.88;100239.56;8353258;28;20123;-75
2022/07/18 01:25:53;;;;;;;2.90;1.70;;;;;;;10.63;77.27;100243.38;8396771;28;20049;-75
2022/07/18 01:29:55;;;;;;;3.95;1.80;;;;;;;10.62;77.59;100249.88;8398741;28;20510;-75
2022/07/18 01:33:55;;;;;;;3.17;1.58;;;;;;;10.58;77.38;100245.03;8398273;28;20041;-76
2022/07/18 01:37:59;;;;;;;3.05;1.58;;;;;;;10.58;77.44;100236.91;8395950;28;20056;-75
2022/07/18 01:42:02;;;;;;;3.67;1.70;;;;;;;10.58;77.47;100236.09;8390068;28;20052;-74
2022/07/18 01:46:03;;;;;;;2.88;1.50;;;;;;;10.57;77.34;100245.31;8391300;28;20052;-75
2022/07/18 01:50:05;;;;;;;4.53;1.65;;;;;;;10.54;78.13;100252.06;8387480;28;20051;-75
2022/07/18 01:54:06;;;;;;;7.00;2.05;;;;;;;10.57;77.79;100254.19;8397574;28;20045;-75
2022/07/18 01:58:07;;;;;;;4.22;1.90;;;;;;;10.51;78.28;100247.25;8388661;28;20056;-75
2022/07/18 02:02:08;;;;;;;2.72;1.55;;;;;;;10.50;78.87;100244.81;8393042;28;20044;-75
2022/07/18 02:06:09;;;;;;;3.58;1.80;;;;;;;10.51;78.63;100247.25;8397051;28;20561;-75
2022/07/18 02:10:13;;;;;;;6.03;1.92;;;;;;;10.55;78.48;100248.28;8397189;28;20418;-75
2022/07/18 02:14:14;;;;;;;3.42;1.60;;;;;;;10.49;78.81;100249.41;8395882;28;20403;-75
2022/07/18 02:18:15;;;;;;;5.78;1.65;;;;;;;10.49;79.07;100259.41;8397123;28;20055;-75
2022/07/18 02:22:16;;;;;;;3.58;1.85;;;;;;;10.54;78.74;100257.47;8395601;28;20059;-75
2022/07/18 02:26:17;;;;;;;4.78;1.92;;;;;;;10.54;78.98;100246.69;8392966;28;20072;-75
2022/07/18 02:30:18;;;;;;;8.63;1.85;;;;;;;10.57;78.89;100248.81;8389993;28;20132;-74
2022/07/18 02:34:19;;;;;;;4.78;1.90;;;;;;;10.58;78.99;100250.41;8395900;28;20044;-76
2022/07/18 02:38:20;;;;;;;3.90;1.98;;;;;;;10.63;79.05;100248.78;8386958;28;20048;-76
2022/07/18 02:42:21;;;;;;;8.60;1.70;;;;;;;10.62;79.16;100241.78;8393273;28;20059;-75
2022/07/18 02:46:22;;;;;;;3.80;1.90;;;;;;;10.63;79.45;100238.00;8380741;28;20048;-75
2022/07/18 02:50:23;;;;;;;2.45;1.50;;;;;;;10.66;79.29;100237.41;8409414;28;20041;-75
2022/07/18 02:54:25;;;;;;;6.35;1.83;;;;;;;10.69;79.35;100247.66;8363216;28;20127;-74
2022/07/18 02:58:26;;;;;;;6.18;2.00;;;;;;;10.72;79.16;100247.09;8378435;28;20059;-74
2022/07/18 03:02:27;;;;;;;7.78;1.80;;;;;;;10.75;79.22;100246.53;8394251;28;20037;-74
2022/07/18 03:06:28;;;;;;;3.78;2.10;;;;;;;10.81;79.33;100240.00;8394319;28;20102;-75
2022/07/18 03:10:29;;;;;;;7.45;2.00;;;;;;;10.86;79.21;100242.66;8395804;28;20101;-74
2022/07/18 03:14:30;;;;;;;4.38;2.05;;;;;;;10.92;79.02;100241.53;8373656;28;20049;-74
2022/07/18 03:18:31;;;;;;;8.75;2.00;;;;;;;10.99;78.82;100242.03;8367369;28;20081;-75
2022/07/18 03:22:33;;;;;;;5.32;1.90;;;;;;;11.05;79.17;100246.25;8394594;28;20102;-75
2022/07/18 03:26:33;;;;;;;6.10;1.77;;;;;;;11.11;78.93;100239.72;8394602;28;20053;-74
2022/07/18 03:30:35;;;;;;;5.38;1.98;;;;;;;11.20;78.67;100248.84;8374433;28;20546;-74
2022/07/18 03:34:35;;;;;;;4.18;1.60;;;;;;;11.30;78.35;100237.94;8384159;28;20068;-74
2022/07/18 03:38:36;;;;;;;5.70;2.00;;;;;;;11.38;78.25;100245.41;8395441;28;20130;-75
2022/07/18 03:42:39;;;;;;;9.63;2.10;;;;;;;11.44;78.28;100249.69;8392069;28;20139;-75
2022/07/18 03:46:40;;;;;;;8.95;2.13;;;;;;;11.50;78.21;100252.34;8380904;28;20049;-75
2022/07/18 03:50:41;;;;;;;5.85;2.20;;;;;;;11.56;78.06;100259.31;8345776;28;20105;-69
2022/07/18 03:54:41;;;;;;;6.32;1.95;;;;;;;11.63;77.84;100257.84;8381745;28;20102;-69
2022/07/18 03:58:42;;;;;;;4.32;2.00;;;;;;;11.68;77.68;100259.72;8406293;28;20131;-69
2022/07/18 04:02:46;;;;;;;4.95;2.08;;;;;;;11.72;77.80;100260.75;8381341;28;20423;-69
2022/07/18 04:06:47;;;;;;;9.13;2.35;;;;;;;11.78;77.64;100270.47;8389794;28;20515;-69
2022/07/18 04:10:48;;;;;;;7.82;2.08;;;;;;;11.84;77.67;100275.50;8383746;28;20508;-69
2022/07/18 04:14:49;;;;;;;6.13;2.35;;;;;;;11.87;77.63;100274.13;8399988;28;20174;-69
2022/07/18 04:18:50;;;;;;;5.15;1.98;;;;;;;11.90;77.68;100273.53;8399448;28;20062;-69
2022/07/18 04:22:52;;;;;;;7.40;2.33;;;;;;;11.94;77.54;100266.47;8392234;28;20472;-70
2022/07/18 04:26:53;;;;;;;5.40;1.83;;;;;;;12.00;77.76;100268.00;8389557;28;20052;-70
2022/07/18 04:30:54;;;;;;;6.45;2.25;;;;;;;12.15;77.12;100259.72;8396143;28;20075;-69
2022/07/18 04:34:55;;;;;;;9.32;2.00;;;;;;;12.34;76.73;100256.19;8379593;28;20041;-71
2022/07/18 04:38:56;;;;;;;7.05;1.92;;;;;;;12.54;76.37;100256.72;8382600;28;20048;-70
2022/07/18 04:42:57;;;;;;;6.88;1.77;;;;;;;12.71;75.72;100261.63;8388292;28;20049;-70
2022/07/18 04:46:58;;;;;;;5.10;2.15;;;;;;;12.86;75.42;100253.25;8382083;28;20446;-69
2022/07/18 04:50:59;;;;;;;8.55;1.90;;;;;;;13.03;74.71;100250.78;8408847;28;20053;-69
2022/07/18 04:55:00;;;;;;;6.35;1.70;;;;;;;13.16;73.38;100245.75;8397298;28;20052;-69
2022/07/18 04:59:01;;;;;;;5.30;1.85;;;;;;;13.30;72.77;100257.41;8396903;28;20127;-69
2022/07/18 05:03:02;;;;;;;7.30;1.85;;;;;;;13.41;72.23;100248.00;8400617;28;20052;-71
2022/07/18 05:07:03;;;;;;;7.18;1.70;;;;;;;13.52;72.01;100244.81;8400586;28;20052;-70
2022/07/18 05:11:04;;;;;;;6.68;1.95;;;;;;;13.68;71.89;100248.03;8396476;28;20547;-70
2022/07/18 05:15:08;;;;;;;4.72;1.65;;;;;;;13.87;71.02;100251.44;8385943;28;20324;-70
2022/07/18 05:19:08;;;;;;;3.97;1.60;;;;;;;14.10;69.83;100254.25;8378964;28;20171;-70
2022/07/18 05:23:10;;;;;;;8.23;1.55;;;;;;;14.32;68.84;100251.59;8394987;28;20048;-71
2022/07/18 05:27:11;;;;;;;5.60;1.50;;;;;;;14.63;68.21;100257.97;8399222;28;20036;-70
2022/07/18 05:31:12;;;;;;;4.47;1.63;;;;;;;14.99;67.47;100254.38;8391109;28;20412;-72
2022/07/18 05:35:13;;;;;;;5.88;1.67;;;;;;;15.24;65.56;100256.47;8384299;28;20123;-71
2022/07/18 05:39:15;;;;;;;2.95;1.40;;;;;;;15.44;64.41;100255.91;8396907;28;20142;-70
2022/07/18 05:43:16;;;;;;;8.55;1.42;;;;;;;15.65;64.37;100260.88;8383171;28;20056;-72
2022/07/18 05:47:17;;;;;;;3.97;1.50;;;;;;;15.83;64.20;100259.81;8396972;28;20049;-72
2022/07/18 05:51:19;;;;;;;3.20;1.10;;;;;;;16.01;64.39;100256.84;8392403;28;20048;-71
2022/07/18 05:55:20;;;;;;;3.17;1.40;;;;;;;16.17;63.28;100256.38;8397663;28;20048;-71
2022/07/18 05:59:21;;;;;;;6.97;1.35;;;;;;;16.41;59.83;100262.97;8386091;28;20041;-70
2022/07/18 06:03:22;;;;;;;5.82;1.40;;;;;;;16.56;59.30;100260.91;8382024;28;20053;-70
2022/07/18 06:07:23;;;;;;;5.82;1.60;;;;;;;16.72;59.45;100267.50;8374640;28;20050;-69
2022/07/18 06:11:24;;;;;;;6.28;1.20;;;;;;;16.86;57.71;100262.72;8377716;28;20135;-70
2022/07/18 06:15:25;;;;;;;3.08;1.20;;;;;;;17.06;56.92;100267.50;8381084;28;20048;-70
2022/07/18 06:19:26;;;;;;;10.05;1.80;;;;;;;17.26;54.41;100269.56;8396835;28;20051;-69
2022/07/18 06:23:28;;;;;;;7.82;1.75;;;;;;;17.34;54.81;100258.94;8382491;28;20571;-69
2022/07/18 06:27:29;;;;;;;4.63;1.30;;;;;;;17.43;54.85;100270.63;8378671;28;20498;-70
2022/07/18 06:31:30;;;;;;;9.85;1.75;;;;;;;17.51;53.80;100261.59;8384529;28;20052;-70
2022/07/18 06:35:32;;;;;;;2.80;1.20;;;;;;;17.53;54.62;100262.09;8384426;28;20049;-70
2022/07/18 06:39:32;;;;;;;7.35;2.03;;;;;;;17.66;55.00;100259.16;8387153;28;20144;-70
2022/07/18 06:43:34;;;;;;;6.35;1.42;;;;;;;17.77;55.37;100265.06;8385098;28;20056;-70
2022/07/18 06:47:35;;;;;;;9.60;1.50;;;;;;;17.82;55.43;100256.69;8386382;28;20052;-69
2022/07/18 06:51:36;;;;;;;6.63;1.85;;;;;;;17.83;54.71;100258.28;8384786;28;20048;-69
2022/07/18 06:55:37;;;;;;;7.15;1.38;;;;;;;17.89;51.98;100256.97;8376296;28;20045;-69
2022/07/18 06:59:38;;;;;;;8.55;1.77;;;;;;;17.99;52.53;100253.88;8381225;28;20049;-68
2022/07/18 07:03:39;;;;;;;7.07;1.83;;;;;;;18.01;51.95;100248.88;8392336;28;20067;-68
2022/07/18 07:07:40;;;;;;;4.75;1.55;;;;;;;18.06;51.81;100245.94;8380057;28;20097;-70
2022/07/18 07:11:41;;;;;;;5.63;1.90;;;;;;;18.13;51.14;100248.97;8393074;28;20045;-69
2022/07/18 07:15:42;;;;;;;4.25;1.35;;;;;;;18.17;50.03;100256.50;8381203;28;20095;-70
2022/07/18 07:19:43;;;;;;;5.32;1.23;;;;;;;18.29;47.82;100248.38;8378978;28;20044;-69
2022/07/18 07:23:44;;;;;;;4.07;1.30;;;;;;;18.45;46.83;100252.13;8378278;28;20053;-69
2022/07/18 07:27:45;;;;;;;6.20;1.63;;;;;;;18.52;46.57;100246.91;8375605;28;20082;-69
2022/07/18 07:31:47;;;;;;;6.45;1.50;;;;;;;18.65;45.92;100245.88;8373008;28;20052;-69
2022/07/18 07:35:47;;;;;;;8.38;1.95;;;;;;;18.70;45.84;100251.16;8385260;28;20075;-70
2022/07/18 07:39:49;;;;;;;2.70;1.35;;;;;;;18.78;45.00;100244.78;8369089;28;20041;-69
2022/07/18 07:43:50;;;;;;;4.95;1.38;;;;;;;18.98;44.41;100243.19;8377907;28;20052;-68
2022/07/18 07:47:52;;;;;;;11.25;1.50;;;;;;;19.10;43.75;100245.13;8399636;28;20507;-69
2022/07/18 07:51:52;;;;;;;6.70;1.52;;;;;;;19.15;44.02;100244.91;8391655;28;20048;-69
2022/07/18 07:55:54;;;;;;;4.05;1.45;;;;;;;19.17;44.60;100239.91;8388218;28;20052;-69
2022/07/18 07:59:55;;;;;;;5.22;1.50;;;;;;;19.25;45.65;100241.75;8347309;28;20110;-70
2022/07/18 08:03:56;;;;;;;8.57;1.70;;;;;;;19.35;45.33;100246.81;8398858;28;20419;-69
2022/07/18 08:07:58;;;;;;;3.92;1.50;;;;;;;19.46;45.58;100248.00;8387700;28;20055;-70
2022/07/18 08:11:59;;;;;;;4.40;1.52;;;;;;;19.59;46.27;100246.88;8377827;28;20511;-69
2022/07/18 08:16:00;;;;;;;5.50;1.50;;;;;;;19.71;44.57;100244.16;8380881;28;20049;-69
2022/07/18 08:20:01;;;;;;;4.63;1.60;;;;;;;19.87;44.51;100235.25;8386025;28;20045;-68
2022/07/18 08:24:03;;;;;;;8.15;1.90;;;;;;;20.01;44.30;100236.50;8393767;28;20190;-69
2022/07/18 08:28:05;;;;;;;4.28;1.85;;;;;;;20.07;43.58;100239.78;8386717;28;20040;-68
2022/07/18 08:32:05;;;;;;;3.63;1.50;;;;;;;20.13;42.38;100232.94;8384684;28;20076;-68
2022/07/18 08:36:08;;;;;;;6.45;1.50;;;;;;;20.18;43.39;100225.28;8387526;28;20044;-70
2022/07/18 08:40:09;;;;;;;4.03;1.33;;;;;;;20.33;43.65;100232.00;8369707;28;20096;-71
2022/07/18 08:44:11;;;;;;;5.25;2.08;;;;;;;20.50;43.30;100231.75;8370158;28;20502;-69
2022/07/18 08:48:16;;;;;;;4.20;1.70;;;;;;;20.62;43.05;100234.44;8396432;28;20056;-69
2022/07/18 08:52:19;;;;;;;5.97;2.08;;;;;;;20.79;43.69;100232.53;8399576;28;20048;-69
2022/07/18 08:56:21;;;;;;;8.43;1.90;;;;;;;20.96;43.04;100232.25;8400647;28;20435;-70
2022/07/18 09:00:22;;;;;;;6.90;1.50;;;;;;;21.17;43.09;100227.34;8399473;28;20036;-70
2022/07/18 09:04:37;;;;;;;3.88;1.60;;;;;;;21.37;41.65;100231.81;8389831;28;20052;-69
2022/07/18 09:08:40;;;;;;;3.70;1.80;;;;;;;21.45;41.28;100239.09;8399338;28;20059;-69
2022/07/18 09:12:55;;;;;;;5.00;1.80;;;;;;;21.54;40.19;100235.38;8375051;28;20055;-70
2022/07/18 09:17:10;;;;;;;6.40;1.75;;;;;;;21.74;41.98;100228.78;8385723;28;20512;-70
2022/07/18 09:21:12;;;;;;;4.57;1.42;;;;;;;21.79;39.97;100231.28;8386078;28;20098;-70
2022/07/18 09:25:15;;;;;;;6.30;2.05;;;;;;;21.88;39.90;100218.16;8378329;28;20611;-69
2022/07/18 09:29:17;;;;;;;2.60;1.35;;;;;;;21.99;40.44;100219.22;8371870;28;20400;-70
2022/07/18 09:33:20;;;;;;;4.03;1.60;;;;;;;22.22;41.32;100211.88;8371473;28;20049;-71
2022/07/18 09:37:21;;;;;;;6.28;1.60;;;;;;;22.38;41.29;100208.28;8369375;28;20049;-72
2022/07/18 09:41:27;;;;;;;11.43;1.92;;;;;;;22.51;40.26;100218.81;8390773;28;20477;-70
2022/07/18 09:45:33;;;;;;;4.22;1.70;;;;;;;22.52;39.02;100219.59;8384751;28;20049;-71
2022/07/18 09:49:34;;;;;;;6.97;1.85;;;;;;;22.47;38.49;100211.63;8370952;28;20113;-71
2022/07/18 09:53:38;;;;;;;4.15;1.48;;;;;;;22.54;38.96;100214.50;8377673;28;20088;-70
2022/07/18 09:57:39;;;;;;;7.22;1.60;;;;;;;22.80;40.79;100209.16;8365283;28;20072;-70
2022/07/18 10:01:40;;;;;;;5.15;1.50;;;;;;;22.82;38.10;100206.88;8374442;28;20049;-70
2022/07/18 10:05:43;;;;;;;8.55;1.77;;;;;;;22.88;37.82;100205.41;8387011;28;20037;-70
2022/07/18 10:09:45;;;;;;;2.83;1.42;;;;;;;22.94;37.04;100203.16;8367512;28;20400;-70
2022/07/18 10:13:46;;;;;;;5.95;1.67;;;;;;;23.05;38.07;100204.94;8375139;28;20048;-71
2022/07/18 10:17:47;;;;;;;3.85;1.70;;;;;;;23.29;38.30;100208.50;8387502;28;20507;-71
2022/07/18 10:21:49;;;;;;;3.47;1.70;;;;;;;23.50;37.39;100214.41;8387769;28;20044;-70
2022/07/18 10:26:05;;;;;;;5.35;1.45;;;;;;;23.55;39.58;100211.34;8384725;28;20061;-70
2022/07/18 10:30:13;;;;;;;3.55;1.30;;;;;;;23.61;37.87;100207.13;8380124;28;20044;-71
2022/07/18 10:34:14;;;;;;;4.27;1.50;;;;;;;23.64;38.39;100209.13;8388386;28;20048;-71
2022/07/18 10:38:21;;;;;;;8.82;1.80;;;;;;;23.86;38.15;100205.53;8378801;28;20048;-72
2022/07/18 10:42:24;;;;;;;7.40;1.67;;;;;;;23.90;37.14;100203.63;8388369;28;20063;-70
2022/07/18 10:47:03;;;;;;;4.68;1.50;;;;;;;23.99;37.85;100198.66;8397576;28;20052;-70
2022/07/18 10:51:08;;;;;;;5.05;1.60;;;;;;;24.08;36.82;100194.81;8397466;28;20041;-70
2022/07/18 10:55:10;;;;;;;6.70;1.70;;;;;;;24.21;37.47;100187.94;8379856;28;20479;-70
2022/07/18 10:59:24;;;;;;;4.32;1.85;;;;;;;24.26;35.59;100190.38;8372110;28;20145;-70
2022/07/18 11:03:27;;;;;;;6.68;1.88;;;;;;;24.43;37.26;100189.78;8380980;28;20053;-70
2022/07/18 11:07:28;;;;;;;7.88;1.63;;;;;;;24.52;36.12;100187.56;8349695;28;20045;-70
2022/07/18 11:11:29;;;;;;;4.35;1.20;;;;;;;24.59;36.69;100176.59;8371403;28;20063;-70
2022/07/18 11:15:53;;;;;;;3.45;1.73;;;;;;;24.69;35.75;100169.63;8390656;28;20052;-70
2022/07/18 11:20:35;;;;;;;6.72;1.75;;;;;;;24.69;35.78;100169.63;8373047;28;20099;-70
2022/07/18 11:24:36;;;;;;;3.22;1.63;;;;;;;24.89;36.43;100159.19;8335380;28;20056;-71
2022/07/18 11:28:37;;;;;;;6.45;1.70;;;;;;;25.08;35.92;100150.69;8391862;28;20052;-71
2022/07/18 11:32:38;;;;;;;4.80;1.70;;;;;;;25.09;34.98;100146.75;8355579;28;20048;-71
2022/07/18 11:36:42;;;;;;;4.53;1.73;;;;;;;25.09;35.09;100144.00;8391436;28;20049;-71
2022/07/18 11:40:52;;;;;;;3.38;1.65;;;;;;;25.23;34.75;100149.63;8388016;28;20056;-70
2022/07/18 11:44:58;;;;;;;3.42;1.60;;;;;;;24.99;33.25;100150.22;8384055;28;20099;-70
2022/07/18 11:49:00;;;;;;;5.95;2.10;;;;;;;25.20;34.40;100139.34;8387201;28;20484;-70
2022/07/18 11:53:01;;;;;;;4.10;1.80;;;;;;;25.47;35.16;100138.00;8381049;28;20048;-70
2022/07/18 11:57:02;;;;;;;7.57;1.95;;;;;;;25.69;34.48;100138.19;8383608;28;20060;-70
2022/07/18 12:01:04;;;;;;;7.75;1.60;;;;;;;25.90;35.36;100127.25;8384196;28;20099;-70
2022/07/18 12:05:05;;;;;;;6.35;1.98;;;;;;;25.95;35.45;100124.09;8388445;28;20047;-70
2022/07/18 12:09:06;;;;;;;4.78;1.60;;;;;;;26.10;35.49;100114.69;8370383;28;20048;-70
2022/07/18 12:13:07;;;;;;;3.78;1.70;;;;;;;26.21;34.47;100115.53;8381453;28;20052;-70
2022/07/18 12:17:08;;;;;;;5.93;1.80;;;;;;;26.29;34.41;100117.16;8386829;28;20547;-72
2022/07/18 12:21:09;;;;;;;4.55;2.20;;;;;;;26.25;33.55;100116.34;8370827;28;20053;-70
2022/07/18 12:25:11;;;;;;;3.55;1.70;;;;;;;26.18;32.91;100116.28;8370006;28;20084;-70
2022/07/18 12:29:11;;;;;;;5.22;1.92;;;;;;;26.16;34.24;100096.53;8379342;28;20082;-71
2022/07/18 12:33:13;;;;;;;5.55;1.85;;;;;;;26.33;35.29;100101.34;8364619;28;20045;-72
2022/07/18 12:37:23;;;;;;;2.25;1.30;;;;;;;26.32;33.90;100099.78;8391667;28;20045;-71
2022/07/18 12:41:28;;;;;;;3.65;1.33;;;;;;;26.29;32.38;100095.00;8376500;28;20041;-72
2022/07/18 12:45:29;;;;;;;3.83;1.52;;;;;;;26.35;32.30;100090.69;8381486;28;20076;-72
2022/07/18 12:49:30;;;;;;;3.72;1.60;;;;;;;26.57;33.93;100083.22;8391549;28;20048;-74
2022/07/18 12:53:34;;;;;;;6.72;1.30;;;;;;;26.68;32.64;100083.25;8392561;28;20194;-72
2022/07/18 12:57:36;;;;;;;4.57;1.55;;;;;;;26.83;32.99;100079.31;8381980;28;20056;-71
2022/07/18 13:01:36;;;;;;;3.33;1.70;;;;;;;26.92;32.32;100070.63;8367538;28;20427;-71
2022/07/18 13:05:37;;;;;;;3.80;1.58;;;;;;;27.02;32.90;100075.41;8394140;28;20052;-72
2022/07/18 13:09:38;;;;;;;13.57;1.80;;;;;;;26.94;31.54;100069.03;8377591;28;20500;-71
2022/07/18 13:13:43;;;;;;;4.25;1.70;;;;;;;26.97;31.58;100073.78;8383096;28;20052;-71
2022/07/18 13:17:43;;;;;;;3.22;1.63;;;;;;;26.87;31.61;100080.13;8367409;28;20045;-70
2022/07/18 13:21:45;;;;;;;5.38;1.70;;;;;;;26.87;31.49;100080.13;8410090;28;20067;-71
2022/07/18 13:25:46;;;;;;;4.03;1.67;;;;;;;26.92;31.82;100076.94;8371606;28;20533;-70
2022/07/18 13:29:47;;;;;;;7.60;1.92;;;;;;;27.10;31.87;100076.97;8393764;28;20088;-69
2022/07/18 13:33:53;;;;;;;2.65;1.50;;;;;;;27.10;30.59;100075.00;8391740;28;20135;-71
2022/07/18 13:37:56;;;;;;;4.00;1.73;;;;;;;27.21;31.52;100061.91;8392398;28;20041;-71
2022/07/18 13:41:57;;;;;;;5.95;2.13;;;;;;;28.46;29.79;100062.31;8390878;28;20459;-70
2022/07/18 13:45:58;;;;;;;4.47;1.67;;;;;;;29.44;28.05;100071.13;8395340;28;20053;-71
2022/07/18 13:49:59;;;;;;;2.42;1.42;;;;;;;30.32;27.85;100052.59;8394157;28;20426;-71
2022/07/18 13:54:01;;;;;;;2.75;1.60;;;;;;;31.34;26.25;100055.81;8386712;28;20052;-71
2022/07/18 13:58:02;;;;;;;4.10;1.73;;;;;;;32.14;26.35;100045.50;8387175;28;20044;-71
2022/07/18 14:02:03;;;;;;;3.83;1.63;;;;;;;32.49;26.20;100038.31;8374734;28;20059;-71
2022/07/18 14:06:05;;;;;;;5.35;1.42;;;;;;;32.73;26.59;100048.13;8385124;28;20048;-71
2022/07/18 14:10:07;;;;;;;3.22;1.60;;;;;;;33.24;26.38;100049.28;8368640;28;20091;-71
2022/07/18 14:14:08;;;;;;;5.18;1.90;;;;;;;34.32;24.27;100034.63;8384740;28;20436;-70
2022/07/18 14:18:10;;;;;;;4.35;1.60;;;;;;;34.77;22.57;100036.44;8377135;28;20041;-70
2022/07/18 14:22:12;;;;;;;7.82;2.10;;;;;;;35.71;22.62;100034.41;8370139;28;20103;-70
2022/07/18 14:26:13;;;;;;;2.05;1.50;;;;;;;35.18;22.65;100030.66;8376326;28;20574;-70
2022/07/18 14:30:16;;;;;;;5.63;1.65;;;;;;;36.22;22.14;100023.63;8373747;28;20151;-71
2022/07/18 14:34:18;;;;;;;4.50;1.50;;;;;;;36.93;21.76;100020.75;8376217;28;20384;-72
2022/07/18 14:38:18;;;;;;;4.25;1.45;;;;;;;36.81;21.17;100024.50;8378885;28;20052;-71
2022/07/18 14:42:19;;;;;;;3.40;1.50;;;;;;;37.23;21.68;100022.69;8363526;28;20101;-71
2022/07/18 14:46:21;;;;;;;4.75;1.83;;;;;;;38.39;20.65;100010.13;8373991;28;20136;-71
2022/07/18 14:50:23;;;;;;;4.95;1.55;;;;;;;38.85;20.31;100013.53;8386218;28;20397;-70
2022/07/18 14:54:23;;;;;;;7.05;1.50;;;;;;;39.07;19.75;100006.81;8370710;28;20041;-71
2022/07/18 14:58:25;;;;;;;3.83;1.40;;;;;;;39.75;19.67;100015.34;8363906;28;20064;-71
2022/07/18 15:02:25;;;;;;;3.83;1.50;;;;;;;40.20;19.14;100009.22;8366716;28;20083;-71
2022/07/18 15:06:27;;;;;;;3.13;1.38;;;;;;;40.72;17.81;100018.00;8387056;28;20053;-71
2022/07/18 15:10:28;;;;;;;3.90;1.27;;;;;;;40.50;18.51;100019.22;8302541;28;20063;-72
2022/07/18 15:14:29;;;;;;;3.60;1.65;;;;;;;40.31;18.00;100006.56;8335635;28;20455;-72
2022/07/18 15:18:30;;;;;;;2.70;1.60;;;;;;;40.63;17.70;100003.97;8389017;28;20131;-72
2022/07/18 15:22:31;;;;;;;4.43;1.40;;;;;;;40.41;17.74;100005.19;8388462;28;20048;-72
2022/07/18 15:26:32;;;;;;;7.00;1.63;;;;;;;40.95;17.42;100008.53;8381724;28;20182;-73
2022/07/18 15:30:34;;;;;;;2.53;1.40;;;;;;;40.91;17.21;100005.16;8363379;28;20796;-72
2022/07/18 15:34:39;;;;;;;3.55;1.60;;;;;;;40.66;16.93;99997.34;8374111;28;20194;-73
2022/07/18 15:38:40;;;;;;;2.67;1.50;;;;;;;40.74;17.18;99998.47;8369299;28;20053;-73
2022/07/18 15:42:40;;;;;;;4.65;1.50;;;;;;;39.09;18.52;99992.97;8389232;28;20116;-72
2022/07/18 15:46:41;;;;;;;3.13;1.58;;;;;;;37.37;21.21;99992.34;8382922;28;20044;-72
2022/07/18 15:50:45;;;;;;;2.45;1.60;;;;;;;35.65;21.94;99982.81;8388571;28;20055;-72
2022/07/18 15:54:46;;;;;;;5.30;1.67;;;;;;;34.30;23.26;99978.25;8385944;28;20056;-72
2022/07/18 15:58:47;;;;;;;4.25;1.50;;;;;;;33.52;23.83;99974.94;8372215;28;20489;-73
2022/07/18 16:02:48;;;;;;;3.45;1.50;;;;;;;33.06;24.88;99971.34;8369411;28;20071;-72
2022/07/18 16:06:49;;;;;;;2.35;1.35;;;;;;;32.31;25.53;99965.28;8370490;28;20075;-71
2022/07/18 16:10:50;;;;;;;4.93;1.58;;;;;;;31.99;26.27;99955.56;8382479;28;20486;-72
2022/07/18 16:14:53;;;;;;;2.45;1.45;;;;;;;31.58;26.31;99952.47;8384838;28;20045;-71
2022/07/18 16:18:54;;;;;;;5.70;1.98;;;;;;;31.30;26.06;99946.22;8394580;28;20051;-71
2022/07/18 16:22:55;;;;;;;2.95;1.55;;;;;;;30.66;26.33;99948.59;8393920;28;20045;-71
2022/07/18 16:26:56;;;;;;;4.25;1.50;;;;;;;30.06;26.55;99944.72;8379259;28;20044;-71
2022/07/18 16:30:57;;;;;;;4.95;1.70;;;;;;;29.84;27.70;99943.41;8413540;28;20047;-72
2022/07/18 16:34:58;;;;;;;4.68;1.70;;;;;;;29.50;27.29;99949.03;8394152;28;20045;-73
2022/07/18 16:38:59;;;;;;;5.35;1.60;;;;;;;29.27;28.42;99949.66;8397174;28;20423;-71
2022/07/18 16:43:00;;;;;;;4.68;1.73;;;;;;;29.16;28.57;99943.44;8393456;28;20553;-70
2022/07/18 16:47:01;;;;;;;5.13;1.67;;;;;;;28.94;28.84;99943.63;8398656;28;20080;-72
2022/07/18 16:51:05;;;;;;;5.93;1.90;;;;;;;28.73;29.86;99943.84;8388557;28;20637;-71
2022/07/18 16:55:07;;;;;;;3.63;1.95;;;;;;;28.49;30.34;99936.50;8382609;28;20049;-70
2022/07/18 16:59:08;;;;;;;3.60;1.67;;;;;;;28.08;30.27;99942.69;8375102;28;20055;-71
2022/07/18 17:03:12;;;;;;;2.85;1.58;;;;;;;27.89;31.86;99931.31;8373088;28;20099;-71
2022/07/18 17:07:13;;;;;;;4.50;1.73;;;;;;;27.61;32.99;99940.56;8382946;28;20055;-71
2022/07/18 17:11:14;;;;;;;4.00;2.00;;;;;;;27.25;33.05;99935.13;8381653;28;20052;-71
2022/07/18 17:15:16;;;;;;;3.03;1.58;;;;;;;27.10;31.74;99939.13;8380776;28;20052;-71
2022/07/18 17:19:17;;;;;;;4.20;1.90;;;;;;;26.91;32.14;99934.03;8381527;28;20052;-71
2022/07/18 17:23:20;;;;;;;3.50;1.80;;;;;;;26.82;32.58;99944.69;8391888;28;20055;-70
2022/07/18 17:27:21;;;;;;;4.05;1.80;;;;;;;26.69;33.20;99940.75;8388008;28;20064;-70
2022/07/18 17:31:23;;;;;;;8.13;1.80;;;;;;;26.56;33.53;99936.78;8376532;28;20120;-71
2022/07/18 17:35:24;;;;;;;6.47;1.85;;;;;;;26.36;35.01;99917.81;8351131;28;20081;-72
2022/07/18 17:39:25;;;;;;;6.68;2.28;;;;;;;26.16;35.99;99930.41;8372878;28;20048;-70
2022/07/18 17:43:26;;;;;;;6.57;3.72;;;;;;;25.91;36.90;99924.81;8388423;28;20173;-70
2022/07/18 17:47:31;;;;;;;6.60;2.78;;;;;;;25.65;38.27;99917.63;8403868;28;20095;-70
2022/07/18 17:51:32;;;;;;;6.00;2.20;;;;;;;25.41;39.47;99923.84;8363695;28;20136;-71
2022/07/18 17:55:33;;;;;;;8.60;4.10;;;;;;;25.15;39.89;99918.59;8371237;28;20040;-70
2022/07/18 17:59:34;;;;;;;7.38;3.38;;;;;;;24.94;40.86;99915.69;8391076;28;20056;-70
2022/07/18 18:03:35;;;;;;;5.47;2.92;;;;;;;24.75;42.16;99909.22;8397827;28;20044;-70
2022/07/18 18:07:36;;;;;;;2.95;1.63;;;;;;;24.54;42.84;99914.59;8399171;28;20567;-71
2022/07/18 18:11:38;;;;;;;6.65;2.35;;;;;;;24.37;42.65;99912.50;8394245;28;20060;-70
2022/07/18 18:15:39;;;;;;;5.10;2.33;;;;;;;24.22;43.65;99914.31;8397385;28;20085;-71
2022/07/18 18:19:40;;;;;;;9.00;2.60;;;;;;;24.03;44.19;99916.47;8386680;28;20052;-73
2022/07/18 18:23:41;;;;;;;6.22;3.17;;;;;;;23.74;45.32;99910.63;8396127;28;20428;-71
2022/07/18 18:27:42;;;;;;;6.45;3.08;;;;;;;23.58;46.07;99918.38;8395616;28;20052;-70
2022/07/18 18:31:44;;;;;;;9.27;3.40;;;;;;;23.42;46.52;99909.47;8395958;28;20462;-71
2022/07/18 18:35:45;;;;;;;9.05;3.70;;;;;;;23.22;47.88;99916.28;8386984;28;20510;-72
2022/07/18 18:39:46;;;;;;;8.63;4.68;;;;;;;23.04;48.99;99927.88;8396348;28;20072;-71
2022/07/18 18:43:47;;;;;;;14.23;8.90;;;;;;;22.91;48.92;99922.94;8389390;28;20105;-72
2022/07/18 18:47:48;;;;;;;19.02;10.88;;;;;;;22.68;49.91;99925.72;8382656;28;20052;-70